Norbank — PGIS — position and weather

sailwx.info

Track history (hours):
 
Tides and Currents Weather Stations Pressure Air Temp Water Temp Dewpoint Dewpoint Depression Visibility Wind Speed Wind Dir Waves Ship Positions

Norbank

Operator: P & O Ferries

Last reported at 2015-Aug-31 21:33 UTC. Time now 2015-Aug-31 21:47 UTC.
Position N 53°32' W 003°11'.

Length 167 m; draft 5.8 m.

Type: Ship (hazmat cat A). MMSI: 246213000.

Date/timePositionNaut miles runAvg speedWind from/ knotsBaromVisibWave heightAir tempDewpointWater temp
2015-Aug-31 21:33N 53°32' W 003°11'8 7.6
2015-Aug-31 20:33N 53°27' W 003°01'0 0.4
2015-Aug-31 19:32N 53°27' W 003°01'0 0.0
2015-Aug-31 18:29N 53°27' W 003°01'0 0.0
2015-Aug-31 17:31N 53°27' W 003°01'0 0.0
2015-Aug-31 16:31N 53°27' W 003°01'0 0.0
2015-Aug-31 15:30N 53°27' W 003°01'0 0.0
2015-Aug-31 14:33N 53°27' W 003°01'0 0.0
2015-Aug-31 13:33N 53°27' W 003°01'0 0.0
2015-Aug-31 12:29N 53°27' W 003°01'0 0.0
2015-Aug-31 11:29N 53°27' W 003°01'0 0.0
2015-Aug-31 10:31N 53°27' W 003°01'0 0.0
2015-Aug-31 09:31N 53°27' W 003°01'0 0.0
2015-Aug-31 08:33N 53°27' W 003°01'0 0.0
2015-Aug-31 07:33N 53°27' W 003°01'0 0.0
2015-Aug-31 06:33N 53°27' W 003°01'0 0.0
2015-Aug-31 05:32N 53°27' W 003°01'0 0.5
2015-Aug-31 04:34N 53°27' W 003°01'5 5.4
2015-Aug-31 03:33N 53°31' W 003°07'1515.0
2015-Aug-31 02:33N 53°31' W 003°32'1515.2
2015-Aug-31 01:33N 53°33' W 003°58'1515.3
2015-Aug-31 00:33N 53°35' W 004°23'16 0.6
2015-Aug-29 23:06N 53°34' W 003°57'916.1
2015-Aug-29 22:33N 53°34' W 003°42'1615.7
2015-Aug-29 21:33N 53°32' W 003°16'1010.0
2015-Aug-29 20:33N 53°27' W 003°01'0 0.4
2015-Aug-29 19:25N 53°27' W 003°01'0 0.0
2015-Aug-29 18:31N 53°27' W 003°01'0 0.0
2015-Aug-29 17:31N 53°27' W 003°01'0 0.0
2015-Aug-29 16:33N 53°27' W 003°01'0 0.4
2015-Aug-29 15:31N 53°27' W 003°01'8 7.7
2015-Aug-29 14:33N 53°32' W 003°11'1717.4
2015-Aug-29 13:33N 53°31' W 003°40'1515.5
2015-Aug-29 12:33N 53°32' W 004°06'11 0.8
2015-Aug-28 22:17N 53°34' W 003°47'1216.0
2015-Aug-28 21:33N 53°33' W 003°27'1515.5
2015-Aug-28 20:33N 53°28' W 003°03'1 1.1
2015-Aug-28 19:33N 53°27' W 003°01'0 0.1
2015-Aug-28 18:28N 53°27' W 003°01'0 0.0
2015-Aug-28 17:30N 53°27' W 003°01'0 0.0
2015-Aug-28 16:33N 53°27' W 003°01'0 0.4
2015-Aug-28 15:33N 53°27' W 003°01'5 4.9
2015-Aug-28 14:33N 53°31' W 003°07'1716.7
2015-Aug-28 13:33N 53°31' W 003°35'1817.9
2015-Aug-28 12:33N 53°34' W 004°04'7 0.5
2015-Aug-27 22:32N 53°34' W 003°52'1616.2
2015-Aug-27 21:33N 53°33' W 003°25'1615.5
2015-Aug-27 20:33N 53°27' W 003°01'1 0.7
2015-Aug-27 19:29N 53°27' W 003°01'0 0.0
2015-Aug-27 18:32N 53°27' W 003°01'0 0.0
2015-Aug-27 17:31N 53°27' W 003°01'0 0.0
2015-Aug-27 16:31N 53°27' W 003°01'0 0.5
2015-Aug-27 15:33N 53°27' W 003°01'1010.0
2015-Aug-27 14:33N 53°31' W 003°16'1818.5
2015-Aug-27 13:33N 53°33' W 003°47'2 0.1
2015-Aug-26 23:03N 53°34' W 003°50'916.8
2015-Aug-26 22:33N 53°33' W 003°35'1717.0
2015-Aug-26 21:33N 53°31' W 003°07'5 5.4
2015-Aug-26 20:32N 53°27' W 003°01'0 0.0
2015-Aug-26 19:29N 53°27' W 003°01'0 0.0
2015-Aug-26 18:29N 53°27' W 003°01'0 0.0
2015-Aug-26 17:31N 53°27' W 003°01'0 0.0
2015-Aug-26 16:31N 53°27' W 003°01'0 0.2
2015-Aug-26 15:33N 53°27' W 003°01'4 3.7
2015-Aug-26 14:33N 53°30' W 003°06'1616.6
2015-Aug-26 13:33N 53°31' W 003°33'1818.0
2015-Aug-26 12:33N 53°34' W 004°03'10 0.7
2015-Aug-25 23:07N 53°34' W 003°47'1119.3
2015-Aug-25 22:33N 53°33' W 003°29'1717.6
2015-Aug-25 21:34N 53°27' W 003°02'1 0.7
2015-Aug-25 20:32N 53°27' W 003°01'0 0.0
2015-Aug-25 19:32N 53°27' W 003°01'0 0.0
2015-Aug-25 18:31N 53°27' W 003°01'0 0.0
2015-Aug-25 17:31N 53°27' W 003°01'0 0.0
2015-Aug-25 16:31N 53°27' W 003°01'0 0.5
2015-Aug-25 15:32N 53°27' W 003°01'7 7.1
2015-Aug-25 14:33N 53°32' W 003°10'1717.4
2015-Aug-25 13:33N 53°32' W 003°39'1817.8
2015-Aug-25 12:33N 53°35' W 004°08'11 0.8
2015-Aug-24 22:32N 53°34' W 003°50'1717.0
2015-Aug-24 21:33N 53°33' W 003°22'1413.7
2015-Aug-24 20:33N 53°27' W 003°01'0 0.4
2015-Aug-24 19:33N 53°27' W 003°01'0 0.0
2015-Aug-24 18:32N 53°27' W 003°01'0 0.0
2015-Aug-24 17:32N 53°27' W 003°01'0 0.0
2015-Aug-24 16:31N 53°27' W 003°01'0 0.0
2015-Aug-24 15:31N 53°27' W 003°01'0 0.0
2015-Aug-24 14:32N 53°27' W 003°01'0 0.0
2015-Aug-24 13:33N 53°27' W 003°01'0 0.0
2015-Aug-24 12:33N 53°27' W 003°01'0 0.0
2015-Aug-24 11:32N 53°27' W 003°01'0 0.0
2015-Aug-24 10:29N 53°27' W 003°01'0 0.0
2015-Aug-24 09:31N 53°27' W 003°01'0 0.0
2015-Aug-24 08:31N 53°27' W 003°01'0 0.0
2015-Aug-24 07:33N 53°27' W 003°01'0 0.0
2015-Aug-24 06:33N 53°27' W 003°01'0 0.0
2015-Aug-24 05:33N 53°27' W 003°01'0 0.4
2015-Aug-24 04:28N 53°27' W 003°01'7 8.1
2015-Aug-24 03:33N 53°32' W 003°11'1818.0
2015-Aug-24 02:33N 53°32' W 003°41'1414.3
2015-Aug-24 01:33N 53°35' W 004°05'3 0.1
2015-Aug-22 23:30N 53°34' W 004°00'1617.2
2015-Aug-22 22:33N 53°33' W 003°33'1716.5
2015-Aug-22 21:33N 53°30' W 003°06'4 3.5
2015-Aug-22 20:32N 53°27' W 003°01'0 0.0
2015-Aug-22 19:32N 53°27' W 003°01'0 0.0
2015-Aug-22 18:28N 53°27' W 003°01'0 0.0
2015-Aug-22 17:31N 53°27' W 003°01'0 0.0
2015-Aug-22 16:33N 53°27' W 003°01'0 0.4
2015-Aug-22 15:33N 53°27' W 003°01'1111.4
2015-Aug-22 14:33N 53°31' W 003°19'1818.4
2015-Aug-22 13:33N 53°32' W 003°50'1515.0
2015-Aug-22 12:32N 53°35' W 004°15'8 0.6
2015-Aug-21 23:18N 53°34' W 004°01'1418.3
2015-Aug-21 22:33N 53°34' W 003°38'  
Track history (hours):
 
Tides and Currents Weather Stations Pressure Air Temp Water Temp Dewpoint Dewpoint Depression Visibility Wind Speed Wind Dir Waves Ship Positions

Norbank

Operator: P & O Ferries

Last reported at 2015-Aug-31 21:33 UTC. Time now 2015-Aug-31 21:47 UTC.
Position N 53°32' W 003°11'.

Length 167 m; draft 5.8 m.

Type: Ship (hazmat cat A). MMSI: 246213000.

Date/timePositionNaut miles runAvg speedWind from/ knotsBaromVisibWave heightAir tempDewpointWater temp
2015-Aug-31 21:33N 53°32' W 003°11'8 7.6
2015-Aug-31 20:33N 53°27' W 003°01'0 0.4
2015-Aug-31 19:32N 53°27' W 003°01'0 0.0
2015-Aug-31 18:29N 53°27' W 003°01'0 0.0
2015-Aug-31 17:31N 53°27' W 003°01'0 0.0
2015-Aug-31 16:31N 53°27' W 003°01'0 0.0
2015-Aug-31 15:30N 53°27' W 003°01'0 0.0
2015-Aug-31 14:33N 53°27' W 003°01'0 0.0
2015-Aug-31 13:33N 53°27' W 003°01'0 0.0
2015-Aug-31 12:29N 53°27' W 003°01'0 0.0
2015-Aug-31 11:29N 53°27' W 003°01'0 0.0
2015-Aug-31 10:31N 53°27' W 003°01'0 0.0
2015-Aug-31 09:31N 53°27' W 003°01'0 0.0
2015-Aug-31 08:33N 53°27' W 003°01'0 0.0
2015-Aug-31 07:33N 53°27' W 003°01'0 0.0
2015-Aug-31 06:33N 53°27' W 003°01'0 0.0
2015-Aug-31 05:32N 53°27' W 003°01'0 0.5
2015-Aug-31 04:34N 53°27' W 003°01'5 5.4
2015-Aug-31 03:33N 53°31' W 003°07'1515.0
2015-Aug-31 02:33N 53°31' W 003°32'1515.2
2015-Aug-31 01:33N 53°33' W 003°58'1515.3
2015-Aug-31 00:33N 53°35' W 004°23'16 0.6
2015-Aug-29 23:06N 53°34' W 003°57'916.1
2015-Aug-29 22:33N 53°34' W 003°42'1615.7
2015-Aug-29 21:33N 53°32' W 003°16'1010.0
2015-Aug-29 20:33N 53°27' W 003°01'0 0.4
2015-Aug-29 19:25N 53°27' W 003°01'0 0.0
2015-Aug-29 18:31N 53°27' W 003°01'0 0.0
2015-Aug-29 17:31N 53°27' W 003°01'0 0.0
2015-Aug-29 16:33N 53°27' W 003°01'0 0.4
2015-Aug-29 15:31N 53°27' W 003°01'8 7.7
2015-Aug-29 14:33N 53°32' W 003°11'1717.4
2015-Aug-29 13:33N 53°31' W 003°40'1515.5
2015-Aug-29 12:33N 53°32' W 004°06'11 0.8
2015-Aug-28 22:17N 53°34' W 003°47'1216.0
2015-Aug-28 21:33N 53°33' W 003°27'1515.5
2015-Aug-28 20:33N 53°28' W 003°03'1 1.1
2015-Aug-28 19:33N 53°27' W 003°01'0 0.1
2015-Aug-28 18:28N 53°27' W 003°01'0 0.0
2015-Aug-28 17:30N 53°27' W 003°01'0 0.0
2015-Aug-28 16:33N 53°27' W 003°01'0 0.4
2015-Aug-28 15:33N 53°27' W 003°01'5 4.9
2015-Aug-28 14:33N 53°31' W 003°07'1716.7
2015-Aug-28 13:33N 53°31' W 003°35'1817.9
2015-Aug-28 12:33N 53°34' W 004°04'7 0.5
2015-Aug-27 22:32N 53°34' W 003°52'1616.2
2015-Aug-27 21:33N 53°33' W 003°25'1615.5
2015-Aug-27 20:33N 53°27' W 003°01'1 0.7
2015-Aug-27 19:29N 53°27' W 003°01'0 0.0
2015-Aug-27 18:32N 53°27' W 003°01'0 0.0
2015-Aug-27 17:31N 53°27' W 003°01'0 0.0
2015-Aug-27 16:31N 53°27' W 003°01'0 0.5
2015-Aug-27 15:33N 53°27' W 003°01'1010.0
2015-Aug-27 14:33N 53°31' W 003°16'1818.5
2015-Aug-27 13:33N 53°33' W 003°47'2 0.1
2015-Aug-26 23:03N 53°34' W 003°50'916.8
2015-Aug-26 22:33N 53°33' W 003°35'1717.0
2015-Aug-26 21:33N 53°31' W 003°07'5 5.4
2015-Aug-26 20:32N 53°27' W 003°01'0 0.0
2015-Aug-26 19:29N 53°27' W 003°01'0 0.0
2015-Aug-26 18:29N 53°27' W 003°01'0 0.0
2015-Aug-26 17:31N 53°27' W 003°01'0 0.0
2015-Aug-26 16:31N 53°27' W 003°01'0 0.2
2015-Aug-26 15:33N 53°27' W 003°01'4 3.7
2015-Aug-26 14:33N 53°30' W 003°06'1616.6
2015-Aug-26 13:33N 53°31' W 003°33'1818.0
2015-Aug-26 12:33N 53°34' W 004°03'10 0.7
2015-Aug-25 23:07N 53°34' W 003°47'1119.3
2015-Aug-25 22:33N 53°33' W 003°29'1717.6
2015-Aug-25 21:34N 53°27' W 003°02'1 0.7
2015-Aug-25 20:32N 53°27' W 003°01'0 0.0
2015-Aug-25 19:32N 53°27' W 003°01'0 0.0
2015-Aug-25 18:31N 53°27' W 003°01'0 0.0
2015-Aug-25 17:31N 53°27' W 003°01'0 0.0
2015-Aug-25 16:31N 53°27' W 003°01'0 0.5
2015-Aug-25 15:32N 53°27' W 003°01'7 7.1
2015-Aug-25 14:33N 53°32' W 003°10'1717.4
2015-Aug-25 13:33N 53°32' W 003°39'1817.8
2015-Aug-25 12:33N 53°35' W 004°08'11 0.8
2015-Aug-24 22:32N 53°34' W 003°50'1717.0
2015-Aug-24 21:33N 53°33' W 003°22'1413.7
2015-Aug-24 20:33N 53°27' W 003°01'0 0.4
2015-Aug-24 19:33N 53°27' W 003°01'0 0.0
2015-Aug-24 18:32N 53°27' W 003°01'0 0.0
2015-Aug-24 17:32N 53°27' W 003°01'0 0.0
2015-Aug-24 16:31N 53°27' W 003°01'0 0.0
2015-Aug-24 15:31N 53°27' W 003°01'0 0.0
2015-Aug-24 14:32N 53°27' W 003°01'0 0.0
2015-Aug-24 13:33N 53°27' W 003°01'0 0.0
2015-Aug-24 12:33N 53°27' W 003°01'0 0.0
2015-Aug-24 11:32N 53°27' W 003°01'0 0.0
2015-Aug-24 10:29N 53°27' W 003°01'0 0.0
2015-Aug-24 09:31N 53°27' W 003°01'0 0.0
2015-Aug-24 08:31N 53°27' W 003°01'0 0.0
2015-Aug-24 07:33N 53°27' W 003°01'0 0.0
2015-Aug-24 06:33N 53°27' W 003°01'0 0.0
2015-Aug-24 05:33N 53°27' W 003°01'0 0.4
2015-Aug-24 04:28N 53°27' W 003°01'7 8.1
2015-Aug-24 03:33N 53°32' W 003°11'1818.0
2015-Aug-24 02:33N 53°32' W 003°41'1414.3
2015-Aug-24 01:33N 53°35' W 004°05'3 0.1
2015-Aug-22 23:30N 53°34' W 004°00'1617.2
2015-Aug-22 22:33N 53°33' W 003°33'1716.5
2015-Aug-22 21:33N 53°30' W 003°06'4 3.5
2015-Aug-22 20:32N 53°27' W 003°01'0 0.0
2015-Aug-22 19:32N 53°27' W 003°01'0 0.0
2015-Aug-22 18:28N 53°27' W 003°01'0 0.0
2015-Aug-22 17:31N 53°27' W 003°01'0 0.0
2015-Aug-22 16:33N 53°27' W 003°01'0 0.4
2015-Aug-22 15:33N 53°27' W 003°01'1111.4
2015-Aug-22 14:33N 53°31' W 003°19'1818.4
2015-Aug-22 13:33N 53°32' W 003°50'1515.0
2015-Aug-22 12:32N 53°35' W 004°15'8 0.6
2015-Aug-21 23:18N 53°34' W 004°01'1418.3
2015-Aug-21 22:33N 53°34' W 003°38'  

Dump ship's entire track history